Time;durP1;ratioP1;P1;durP2;ratioP2;P2;SDS_P1;SDS_P2;PMS_P1;PMS_P2;Temp;Humidity;BMP_temperature;BMP_pressure;BME280_temperature;BME280_humidity;BME280_pressure;Samples;Min_cycle;Max_cycle;Signal;HPM_P1;HPM_P2
2022/05/30 00:01:11;;;;;;;6.68;1.20;;;;;;;;;;4938266;29;20126;-86
2022/05/30 00:03:38;;;;;;;7.90;1.50;;;;;;;;;;4938414;29;20071;-85
2022/05/30 00:06:06;;;;;;;6.90;1.30;;;;;;;;;;4955351;28;20047;-85
2022/05/30 00:08:32;;;;;;;8.00;1.67;;;;;;;;;;4938228;29;20491;-85
2022/05/30 00:11:01;;;;;;;6.82;1.73;;;;;;;;;;4937761;29;20050;-86
2022/05/30 00:13:27;;;;;;;8.98;1.75;;;;;;;;;;4938331;29;20051;-85
2022/05/30 00:15:53;;;;;;;8.20;1.23;;;;;;;;;;4938113;29;20047;-85
2022/05/30 00:18:19;;;;;;;7.35;1.52;;;;;;;;;;4938219;29;20054;-85
2022/05/30 00:20:47;;;;;;;8.50;1.63;;;;;;;;;;4938100;29;20047;-86
2022/05/30 00:23:13;;;;;;;7.88;1.30;;;;;;;;;;4938062;29;20057;-86
2022/05/30 00:25:43;;;;;;;6.97;1.63;;;;;;;;;;4955115;28;20118;-87
2022/05/30 00:28:09;;;;;;;10.00;1.80;;;;;;;;;;4938016;29;20054;-85
2022/05/30 00:30:36;;;;;;;7.93;1.38;;;;;;;;;;4955359;29;20050;-86
2022/05/30 00:33:02;;;;;;;5.85;1.40;;;;;;;;;;4938025;29;20050;-85
2022/05/30 00:35:28;;;;;;;7.75;1.75;;;;;;;;;;4937816;29;20113;-85
2022/05/30 00:37:56;;;;;;;6.32;1.40;;;;;;;;;;4937816;29;20039;-85
2022/05/30 00:40:22;;;;;;;6.60;1.60;;;;;;;;;;4921974;29;20043;-85
2022/05/30 00:42:48;;;;;;;9.02;1.83;;;;;;;;;;4937548;29;20051;-85
2022/05/30 00:45:14;;;;;;;7.03;1.42;;;;;;;;;;4954743;28;20348;-86
2022/05/30 00:47:40;;;;;;;7.15;1.77;;;;;;;;;;4954788;29;20074;-86
2022/05/30 00:50:06;;;;;;;8.43;1.40;;;;;;;;;;4937725;29;20098;-86
2022/05/30 00:52:34;;;;;;;6.25;1.70;;;;;;;;;;4954723;29;20082;-85
2022/05/30 00:55:04;;;;;;;7.05;1.60;;;;;;;;;;4937938;29;20137;-85
2022/05/30 00:57:31;;;;;;;8.32;2.10;;;;;;;;;;4954746;29;20043;-86
2022/05/30 00:59:59;;;;;;;9.18;1.80;;;;;;;;;;4937728;29;20126;-85
2022/05/30 01:02:27;;;;;;;7.32;2.35;;;;;;;;;;4937664;29;20398;-85
2022/05/30 01:07:40;;;;;;;7.30;2.00;;;;;;;;;;4937312;29;20055;-86
2022/05/30 01:10:07;;;;;;;4.80;1.58;;;;;;;;;;4937559;29;20486;-86
2022/05/30 01:12:52;;;;;;;9.57;1.80;;;;;;;;;;4937311;29;20050;-87
2022/05/30 01:15:18;;;;;;;4.82;1.55;;;;;;;;;;4921763;29;20057;-86
2022/05/30 01:17:48;;;;;;;8.77;2.05;;;;;;;;;;4937190;29;20058;-85
2022/05/30 01:20:31;;;;;;;5.82;1.50;;;;;;;;;;4955123;29;20549;-85
2022/05/30 01:23:16;;;;;;;9.52;2.17;;;;;;;;;;4939877;29;20513;-88
2022/05/30 01:26:04;;;;;;;8.27;1.77;;;;;;;;;;4958302;28;20054;-86
2022/05/30 01:28:48;;;;;;;6.55;1.50;;;;;;;;;;4940954;29;20610;-84
2022/05/30 01:31:15;;;;;;;7.93;1.90;;;;;;;;;;4958610;29;20059;-85
2022/05/30 01:33:41;;;;;;;7.93;1.92;;;;;;;;;;4925015;29;20046;-85
2022/05/30 01:36:08;;;;;;;10.10;2.20;;;;;;;;;;4940871;29;20477;-84
2022/05/30 01:38:34;;;;;;;8.27;2.20;;;;;;;;;;4940812;29;20040;-85
2022/05/30 01:41:00;;;;;;;9.45;2.28;;;;;;;;;;4958430;29;20043;-85
2022/05/30 01:43:27;;;;;;;7.55;1.90;;;;;;;;;;4940822;29;20058;-85
2022/05/30 01:45:53;;;;;;;7.32;1.95;;;;;;;;;;4940578;29;20513;-85
2022/05/30 01:48:19;;;;;;;8.15;1.90;;;;;;;;;;4940883;29;20047;-86
2022/05/30 01:50:46;;;;;;;6.75;2.03;;;;;;;;;;4957960;28;20054;-86
2022/05/30 01:53:12;;;;;;;8.13;1.60;;;;;;;;;;4940562;29;20170;-85
2022/05/30 01:55:38;;;;;;;7.32;1.73;;;;;;;;;;4940605;29;20051;-85
2022/05/30 01:58:05;;;;;;;6.28;2.20;;;;;;;;;;4940440;29;20054;-85
2022/05/30 02:00:31;;;;;;;7.43;2.08;;;;;;;;;;4940862;29;20095;-85
2022/05/30 02:02:57;;;;;;;6.80;2.05;;;;;;;;;;4940298;29;20043;-85
2022/05/30 02:05:23;;;;;;;6.82;2.10;;;;;;;;;;4940451;29;20483;-85
2022/05/30 02:07:49;;;;;;;6.88;2.40;;;;;;;;;;4940360;29;20035;-86
2022/05/30 02:10:15;;;;;;;9.10;2.58;;;;;;;;;;4940484;29;20098;-85
2022/05/30 02:12:41;;;;;;;5.55;1.70;;;;;;;;;;4924470;29;20051;-86
2022/05/30 02:15:07;;;;;;;6.55;2.10;;;;;;;;;;4940345;29;20050;-85
2022/05/30 02:17:34;;;;;;;17.40;2.50;;;;;;;;;;4940434;29;20047;-86
2022/05/30 02:20:00;;;;;;;7.78;1.70;;;;;;;;;;4940414;29;20078;-86
2022/05/30 02:22:29;;;;;;;9.77;2.10;;;;;;;;;;4940287;29;20043;-84
2022/05/30 02:24:55;;;;;;;6.72;2.03;;;;;;;;;;4940335;28;20171;-85
2022/05/30 02:27:21;;;;;;;12.10;2.20;;;;;;;;;;4957594;29;20047;-85
2022/05/30 02:29:47;;;;;;;8.52;1.98;;;;;;;;;;4957026;28;20050;-86
2022/05/30 02:32:13;;;;;;;9.20;1.83;;;;;;;;;;4940078;29;20094;-85
2022/05/30 02:37:24;;;;;;;8.90;2.05;;;;;;;;;;4957451;29;20047;-85
2022/05/30 02:39:50;;;;;;;8.55;2.20;;;;;;;;;;4939638;29;20050;-86
2022/05/30 02:42:16;;;;;;;5.82;2.25;;;;;;;;;;4957256;29;20042;-86
2022/05/30 02:44:41;;;;;;;6.95;1.75;;;;;;;;;;4939799;28;20043;-85
2022/05/30 02:47:07;;;;;;;7.10;2.08;;;;;;;;;;4939673;29;20059;-85
2022/05/30 02:49:33;;;;;;;7.45;1.90;;;;;;;;;;4939497;29;20146;-85
2022/05/30 02:52:00;;;;;;;9.27;2.40;;;;;;;;;;4957147;29;20035;-85
2022/05/30 02:54:26;;;;;;;6.82;2.22;;;;;;;;;;4956706;29;20553;-84
2022/05/30 02:56:53;;;;;;;8.45;2.03;;;;;;;;;;4939560;29;20051;-86
2022/05/30 02:59:20;;;;;;;6.60;2.13;;;;;;;;;;4939351;29;20047;-85
2022/05/30 03:01:46;;;;;;;6.75;2.00;;;;;;;;;;4939543;29;20134;-86
2022/05/30 03:04:12;;;;;;;7.30;2.55;;;;;;;;;;4939150;29;20090;-85
2022/05/30 03:06:38;;;;;;;7.32;2.20;;;;;;;;;;4939347;29;20043;-85
2022/05/30 03:09:05;;;;;;;4.78;1.65;;;;;;;;;;4939120;29;20043;-86
2022/05/30 03:11:31;;;;;;;6.03;2.33;;;;;;;;;;4923470;29;20063;-85
2022/05/30 03:13:57;;;;;;;7.55;1.95;;;;;;;;;;4939177;29;20043;-86
2022/05/30 03:16:23;;;;;;;5.63;1.67;;;;;;;;;;4938974;29;20051;-85
2022/05/30 03:18:49;;;;;;;9.05;2.40;;;;;;;;;;4938937;29;20413;-86
2022/05/30 03:21:15;;;;;;;7.13;2.55;;;;;;;;;;4956588;29;20031;-86
2022/05/30 03:23:41;;;;;;;7.40;2.13;;;;;;;;;;4956280;29;20043;-86
2022/05/30 03:26:07;;;;;;;6.25;1.88;;;;;;;;;;4956147;28;20039;-85
2022/05/30 03:28:34;;;;;;;6.93;2.08;;;;;;;;;;4939185;29;20040;-85
2022/05/30 03:31:00;;;;;;;6.10;2.35;;;;;;;;;;4956066;29;20054;-86
2022/05/30 03:33:26;;;;;;;6.85;1.90;;;;;;;;;;4938799;29;20043;-85
2022/05/30 03:35:53;;;;;;;6.05;2.40;;;;;;;;;;4939146;29;20130;-85
2022/05/30 03:38:19;;;;;;;8.80;2.25;;;;;;;;;;4938944;29;20502;-85
2022/05/30 03:40:45;;;;;;;7.47;2.20;;;;;;;;;;4939039;29;20126;-85
2022/05/30 03:43:12;;;;;;;9.73;2.80;;;;;;;;;;4938768;29;20043;-86
2022/05/30 03:45:39;;;;;;;4.93;2.13;;;;;;;;;;4938486;29;20063;-85
2022/05/30 03:48:05;;;;;;;6.07;2.20;;;;;;;;;;4938708;29;20491;-86
2022/05/30 03:50:32;;;;;;;6.80;1.80;;;;;;;;;;4938364;29;20054;-86
2022/05/30 03:53:05;;;;;;;8.38;2.25;;;;;;;;;;4922781;29;20046;-85
2022/05/30 03:55:31;;;;;;;5.07;2.05;;;;;;;;;;4955669;28;20051;-85
2022/05/30 03:57:57;;;;;;;7.25;1.98;;;;;;;;;;4938810;29;20550;-85
2022/05/30 04:00:23;;;;;;;7.13;2.08;;;;;;;;;;4938241;29;20055;-86
2022/05/30 04:02:50;;;;;;;7.68;2.08;;;;;;;;;;4938372;29;20051;-86
2022/05/30 04:05:17;;;;;;;7.85;2.47;;;;;;;;;;4937931;29;20126;-85
2022/05/30 04:07:43;;;;;;;5.68;1.90;;;;;;;;;;4938242;29;20038;-86
2022/05/30 04:10:09;;;;;;;5.95;1.85;;;;;;;;;;4955515;28;20169;-84
2022/05/30 04:12:35;;;;;;;4.93;1.92;;;;;;;;;;4938178;29;20122;-85
2022/05/30 04:15:01;;;;;;;6.20;1.92;;;;;;;;;;4955397;28;20451;-85
2022/05/30 04:17:28;;;;;;;4.90;2.00;;;;;;;;;;4938186;29;20126;-86
2022/05/30 04:19:54;;;;;;;7.05;1.85;;;;;;;;;;4937943;29;20133;-87
2022/05/30 04:22:20;;;;;;;6.22;2.33;;;;;;;;;;4938220;29;20527;-86
2022/05/30 04:24:47;;;;;;;5.57;2.00;;;;;;;;;;4954962;28;20039;-85
2022/05/30 04:27:13;;;;;;;8.65;2.13;;;;;;;;;;4937967;29;20039;-86
2022/05/30 04:29:39;;;;;;;7.75;2.33;;;;;;;;;;4938225;29;20148;-86
2022/05/30 04:32:06;;;;;;;7.40;2.17;;;;;;;;;;4938273;29;20478;-84
2022/05/30 04:34:32;;;;;;;5.32;1.88;;;;;;;;;;4937848;29;20039;-85
2022/05/30 04:36:58;;;;;;;5.22;1.60;;;;;;;;;;4937740;29;20051;-85
2022/05/30 04:39:24;;;;;;;3.75;1.50;;;;;;;;;;4937828;29;20039;-84
2022/05/30 04:41:51;;;;;;;4.65;1.55;;;;;;;;;;4955196;29;20058;-85
2022/05/30 04:44:17;;;;;;;5.93;1.70;;;;;;;;;;4937428;29;20055;-84
2022/05/30 04:46:42;;;;;;;5.22;1.67;;;;;;;;;;4937564;29;20410;-85
2022/05/30 04:49:08;;;;;;;6.00;1.70;;;;;;;;;;4937620;29;20118;-85
2022/05/30 04:51:34;;;;;;;5.20;1.65;;;;;;;;;;4937830;29;20097;-86
2022/05/30 04:54:00;;;;;;;6.90;1.75;;;;;;;;;;4954721;29;20371;-85
2022/05/30 04:56:26;;;;;;;8.07;1.63;;;;;;;;;;4937171;29;20050;-86
2022/05/30 04:58:52;;;;;;;5.18;1.70;;;;;;;;;;4937622;29;20518;-85
2022/05/30 05:01:18;;;;;;;7.10;2.30;;;;;;;;;;4937651;29;20223;-86
2022/05/30 05:03:45;;;;;;;4.90;1.80;;;;;;;;;;4937614;29;20214;-85
2022/05/30 05:06:13;;;;;;;6.82;2.15;;;;;;;;;;4954462;28;20118;-85
2022/05/30 05:08:39;;;;;;;4.75;1.77;;;;;;;;;;4937526;29;20035;-85
2022/05/30 05:11:17;;;;;;;7.43;2.47;;;;;;;;;;4937260;29;20422;-84
2022/05/30 05:13:43;;;;;;;8.18;2.40;;;;;;;;;;4937606;29;20047;-84
2022/05/30 05:16:09;;;;;;;7.15;2.03;;;;;;;;;;4937145;29;20126;-85
2022/05/30 05:18:36;;;;;;;4.93;2.38;;;;;;;;;;4937756;29;20543;-85
2022/05/30 05:21:02;;;;;;;4.78;1.80;;;;;;;;;;4954601;29;20070;-84
2022/05/30 05:23:28;;;;;;;5.20;1.67;;;;;;;;;;4937346;29;20098;-85
2022/05/30 05:25:54;;;;;;;7.93;1.92;;;;;;;;;;4937059;29;20051;-85
2022/05/30 05:28:20;;;;;;;4.55;1.55;;;;;;;;;;4937334;29;20039;-86
2022/05/30 05:30:45;;;;;;;4.57;1.80;;;;;;;;;;4937128;29;20463;-85
2022/05/30 05:33:11;;;;;;;4.55;1.55;;;;;;;;;;4937649;29;20051;-86
2022/05/30 05:35:44;;;;;;;5.22;1.65;;;;;;;;;;4937108;29;20077;-85
2022/05/30 05:38:10;;;;;;;5.50;1.80;;;;;;;;;;4937700;29;20130;-84
2022/05/30 05:40:40;;;;;;;8.10;1.70;;;;;;;;;;4921525;29;20294;-85
2022/05/30 05:43:06;;;;;;;7.10;1.55;;;;;;;;;;4937167;29;20047;-85
2022/05/30 05:45:35;;;;;;;6.60;1.48;;;;;;;;;;4936845;29;20518;-85
2022/05/30 05:48:02;;;;;;;7.25;1.70;;;;;;;;;;4937172;29;20054;-85
2022/05/30 05:50:28;;;;;;;4.20;1.35;;;;;;;;;;4937004;29;20055;-84
2022/05/30 05:52:54;;;;;;;6.85;1.92;;;;;;;;;;4937138;29;20070;-86
2022/05/30 05:55:20;;;;;;;5.50;1.33;;;;;;;;;;4937162;29;20506;-85
2022/05/30 05:57:47;;;;;;;4.43;1.38;;;;;;;;;;4937239;29;20039;-85
2022/05/30 06:00:13;;;;;;;6.38;2.00;;;;;;;;;;4936942;29;20098;-86
2022/05/30 06:02:39;;;;;;;4.78;1.50;;;;;;;;;;4937082;29;20063;-85
2022/05/30 06:05:06;;;;;;;5.78;1.50;;;;;;;;;;4936760;29;20054;-86
2022/05/30 06:07:36;;;;;;;5.10;1.83;;;;;;;;;;4937037;28;20043;-85
2022/05/30 06:10:02;;;;;;;7.63;2.00;;;;;;;;;;4939602;29;20043;-85
2022/05/30 06:12:28;;;;;;;6.43;1.50;;;;;;;;;;4940517;29;20047;-85
2022/05/30 06:14:54;;;;;;;7.57;1.63;;;;;;;;;;4940361;28;20054;-84
2022/05/30 06:17:20;;;;;;;5.32;1.27;;;;;;;;;;4940293;29;20054;-85
2022/05/30 06:19:46;;;;;;;5.85;1.70;;;;;;;;;;4940296;29;20117;-85
2022/05/30 06:22:12;;;;;;;6.07;1.13;;;;;;;;;;4940615;29;20386;-85
2022/05/30 06:24:39;;;;;;;5.00;1.40;;;;;;;;;;4940044;28;20051;-85
2022/05/30 06:27:06;;;;;;;5.63;1.50;;;;;;;;;;4940117;29;20126;-86
2022/05/30 06:29:32;;;;;;;4.93;1.70;;;;;;;;;;4940199;29;20043;-86
2022/05/30 06:31:58;;;;;;;7.07;1.25;;;;;;;;;;4940682;29;20446;-88
2022/05/30 06:34:24;;;;;;;3.63;1.20;;;;;;;;;;4940162;29;20059;-84
2022/05/30 06:36:50;;;;;;;4.47;1.23;;;;;;;;;;4939764;29;20055;-85
2022/05/30 06:39:17;;;;;;;4.38;1.00;;;;;;;;;;4972199;28;20410;-85
2022/05/30 06:41:44;;;;;;;3.15;0.98;;;;;;;;;;4939670;29;20054;-84
2022/05/30 06:44:10;;;;;;;3.05;1.10;;;;;;;;;;4939798;29;20083;-84
2022/05/30 06:46:37;;;;;;;4.18;1.00;;;;;;;;;;4939302;29;20487;-85
2022/05/30 06:49:04;;;;;;;6.35;1.20;;;;;;;;;;4923861;29;20050;-84
2022/05/30 06:51:31;;;;;;;6.38;0.88;;;;;;;;;;4939568;29;20043;-85
2022/05/30 06:53:57;;;;;;;5.88;0.75;;;;;;;;;;4939896;29;20039;-90
2022/05/30 06:56:27;;;;;;;2.78;0.80;;;;;;;;;;4939448;29;20047;-85
2022/05/30 06:58:54;;;;;;;2.83;0.90;;;;;;;;;;4939666;29;20051;-87
2022/05/30 07:01:24;;;;;;;4.88;0.93;;;;;;;;;;4939333;29;20088;-86
2022/05/30 07:03:51;;;;;;;3.55;0.90;;;;;;;;;;4939874;29;20106;-86
2022/05/30 07:06:19;;;;;;;5.75;0.90;;;;;;;;;;4939298;29;20051;-86
2022/05/30 07:08:46;;;;;;;2.28;0.65;;;;;;;;;;4923592;29;20039;-84
2022/05/30 07:11:16;;;;;;;4.90;0.75;;;;;;;;;;4939157;29;20042;-85
2022/05/30 07:13:42;;;;;;;4.38;0.80;;;;;;;;;;4939428;29;20081;-85
2022/05/30 07:16:09;;;;;;;2.97;0.80;;;;;;;;;;4939014;29;20375;-85
2022/05/30 07:18:35;;;;;;;4.95;0.98;;;;;;;;;;4939170;29;20551;-85
2022/05/30 07:21:03;;;;;;;3.95;0.70;;;;;;;;;;4938639;29;20051;-85
2022/05/30 07:23:30;;;;;;;2.55;0.80;;;;;;;;;;4923507;29;20406;-85
2022/05/30 07:26:00;;;;;;;3.08;0.90;;;;;;;;;;4922829;29;20101;-85
2022/05/30 07:28:29;;;;;;;4.80;1.00;;;;;;;;;;4939297;29;20535;-85
2022/05/30 07:31:06;;;;;;;2.92;0.73;;;;;;;;;;4938552;29;20173;-86
2022/05/30 07:33:33;;;;;;;4.28;0.57;;;;;;;;;;4954725;29;20120;-85
2022/05/30 07:35:59;;;;;;;2.75;0.68;;;;;;;;;;4954278;28;20058;-84
2022/05/30 07:38:26;;;;;;;1.83;0.40;;;;;;;;;;4955708;29;20046;-85
2022/05/30 07:40:52;;;;;;;4.55;0.80;;;;;;;;;;4955406;28;20186;-85
2022/05/30 07:43:18;;;;;;;2.65;0.55;;;;;;;;;;4954296;29;20137;-85
2022/05/30 07:45:44;;;;;;;3.92;0.45;;;;;;;;;;4953844;28;20134;-85
2022/05/30 07:48:10;;;;;;;2.17;0.30;;;;;;;;;;4954313;29;20055;-85
2022/05/30 07:50:37;;;;;;;3.22;0.77;;;;;;;;;;4951907;29;20450;-85
2022/05/30 07:53:04;;;;;;;4.45;0.63;;;;;;;;;;4954110;28;20043;-85
2022/05/30 07:55:30;;;;;;;3.63;0.63;;;;;;;;;;4954431;28;20051;-85
2022/05/30 07:58:04;;;;;;;3.42;0.60;;;;;;;;;;4955894;28;20372;-85
2022/05/30 08:00:31;;;;;;;5.28;0.57;;;;;;;;;;4938528;29;20054;-85
2022/05/30 08:02:57;;;;;;;3.13;0.63;;;;;;;;;;4954305;28;20487;-84
2022/05/30 08:05:23;;;;;;;3.33;0.70;;;;;;;;;;4954179;28;20046;-85
2022/05/30 08:07:49;;;;;;;3.88;0.73;;;;;;;;;;4953974;28;20051;-85
2022/05/30 08:10:16;;;;;;;4.15;0.70;;;;;;;;;;4954469;29;20046;-85
2022/05/30 08:12:42;;;;;;;4.60;0.68;;;;;;;;;;4954091;29;20043;-84
2022/05/30 08:15:09;;;;;;;1.90;0.40;;;;;;;;;;4953148;28;20070;-85
2022/05/30 08:17:35;;;;;;;2.70;0.40;;;;;;;;;;4954239;29;20043;-85
2022/05/30 08:20:02;;;;;;;2.35;0.52;;;;;;;;;;4955399;29;20046;-85
2022/05/30 08:22:28;;;;;;;2.30;0.55;;;;;;;;;;4953873;29;20283;-86
2022/05/30 08:24:54;;;;;;;2.45;0.65;;;;;;;;;;4955112;28;20039;-86
2022/05/30 08:27:21;;;;;;;2.15;0.70;;;;;;;;;;4954000;29;20107;-85
2022/05/30 08:29:47;;;;;;;1.27;0.47;;;;;;;;;;4954008;29;20050;-89
2022/05/30 08:32:13;;;;;;;1.13;0.30;;;;;;;;;;4954456;28;20045;-85
2022/05/30 08:34:40;;;;;;;2.65;0.40;;;;;;;;;;4937816;28;20074;-84
2022/05/30 08:37:07;;;;;;;1.42;0.40;;;;;;;;;;4953881;29;20051;-85
2022/05/30 08:42:26;;;;;;;2.85;0.50;;;;;;;;;;4955171;28;20051;-85
2022/05/30 08:44:52;;;;;;;1.23;0.30;;;;;;;;;;4954367;28;20043;-84
2022/05/30 08:47:37;;;;;;;2.15;0.40;;;;;;;;;;4937516;29;20415;-85
2022/05/30 08:50:09;;;;;;;2.15;0.40;;;;;;;;;;4937223;28;20047;-85
2022/05/30 08:52:41;;;;;;;1.40;0.30;;;;;;;;;;4921776;29;20047;-85
2022/05/30 08:55:19;;;;;;;1.83;0.40;;;;;;;;;;4954891;28;20047;-83
2022/05/30 08:57:51;;;;;;;2.00;0.47;;;;;;;;;;4937386;29;20048;-84
2022/05/30 09:00:29;;;;;;;1.30;0.25;;;;;;;;;;4937639;29;20113;-85
2022/05/30 09:02:58;;;;;;;2.30;0.60;;;;;;;;;;4937658;29;20053;-85
2022/05/30 09:05:27;;;;;;;4.72;0.80;;;;;;;;;;4937339;29;20047;-85
2022/05/30 09:07:55;;;;;;;3.95;0.70;;;;;;;;;;4954705;29;20039;-85
2022/05/30 09:10:25;;;;;;;2.90;0.60;;;;;;;;;;4937672;29;20065;-81
2022/05/30 09:12:55;;;;;;;3.38;0.85;;;;;;;;;;4954974;29;20036;-82
2022/05/30 09:15:23;;;;;;;2.22;0.60;;;;;;;;;;4937590;29;20047;-82
2022/05/30 09:17:57;;;;;;;4.10;0.70;;;;;;;;;;4937208;29;20051;-81
2022/05/30 09:20:23;;;;;;;4.05;0.75;;;;;;;;;;4954621;28;20047;-81
2022/05/30 09:22:50;;;;;;;5.63;0.75;;;;;;;;;;4937070;29;20043;-83
2022/05/30 09:28:06;;;;;;;3.03;0.47;;;;;;;;;;4954244;29;20048;-82
2022/05/30 09:30:47;;;;;;;1.20;0.30;;;;;;;;;;4936211;29;20043;-82
2022/05/30 09:33:16;;;;;;;2.30;0.43;;;;;;;;;;4954218;29;20039;-82
2022/05/30 09:35:42;;;;;;;1.40;0.40;;;;;;;;;;4953362;28;20043;-82
2022/05/30 09:38:08;;;;;;;2.33;0.40;;;;;;;;;;4937251;29;20051;-83
2022/05/30 09:40:43;;;;;;;2.17;0.32;;;;;;;;;;4937420;29;20051;-83
2022/05/30 09:43:11;;;;;;;2.20;0.10;;;;;;;;;;4938525;29;20627;-82
2022/05/30 09:45:37;;;;;;;1.77;0.30;;;;;;;;;;4940543;29;20059;-82
2022/05/30 09:48:20;;;;;;;2.05;0.30;;;;;;;;;;4940689;29;20131;-82
2022/05/30 09:50:51;;;;;;;2.65;0.38;;;;;;;;;;4940818;29;20077;-81
2022/05/30 09:53:37;;;;;;;2.40;0.60;;;;;;;;;;4940946;29;20058;-81
2022/05/30 09:56:03;;;;;;;;;;;;;;;;;;4941310;29;20117;-82
2022/05/30 09:58:49;;;;;;;0.20;0.17;;;;;;;;;;4940476;29;20440;-82
2022/05/30 10:01:25;;;;;;;1.30;0.20;;;;;;;;;;4941028;29;20047;-81
2022/05/30 10:03:56;;;;;;;1.90;0.40;;;;;;;;;;4937181;29;20043;-81
2022/05/30 10:06:26;;;;;;;1.58;0.40;;;;;;;;;;4957745;28;20437;-81
2022/05/30 10:09:08;;;;;;;1.38;0.40;;;;;;;;;;4939211;29;20054;-81
2022/05/30 10:11:35;;;;;;;3.83;0.68;;;;;;;;;;4940878;29;20050;-81
2022/05/30 10:14:16;;;;;;;1.80;0.50;;;;;;;;;;4957511;28;20046;-81
2022/05/30 10:16:43;;;;;;;1.75;0.32;;;;;;;;;;4976944;28;20047;-81
2022/05/30 10:19:11;;;;;;;3.15;0.70;;;;;;;;;;4959217;28;20406;-81
2022/05/30 10:28:14;;;;;;;2.30;0.45;;;;;;;;;;4959529;28;20162;-81
2022/05/30 10:30:07;;;;;;;3.08;0.30;;;;;;;;;;4959618;28;20123;-81
2022/05/30 10:32:42;;;;;;;1.95;0.65;;;;;;;;;;4959024;28;20408;-81
2022/05/30 10:35:11;;;;;;;3.57;0.40;;;;;;;;;;4959458;28;20050;-81
2022/05/30 10:37:55;;;;;;;1.23;0.28;;;;;;;;;;4959300;28;20654;-82
2022/05/30 10:40:47;;;;;;;1.77;0.32;;;;;;;;;;4976740;28;20062;-82
2022/05/30 10:43:20;;;;;;;3.08;0.40;;;;;;;;;;4958975;28;20047;-82
2022/05/30 10:45:59;;;;;;;1.52;0.50;;;;;;;;;;4976205;28;20062;-82
2022/05/30 10:48:25;;;;;;;1.58;0.40;;;;;;;;;;4976128;28;20062;-82
2022/05/30 10:50:57;;;;;;;2.08;0.50;;;;;;;;;;4959268;28;20051;-81
2022/05/30 10:53:44;;;;;;;1.60;0.40;;;;;;;;;;4958761;28;20039;-81
2022/05/30 10:56:30;;;;;;;1.83;0.50;;;;;;;;;;4958340;28;20133;-82
2022/05/30 10:58:59;;;;;;;2.72;0.50;;;;;;;;;;4976011;28;20131;-82
2022/05/30 11:01:29;;;;;;;2.47;0.70;;;;;;;;;;4959224;28;20043;-82
2022/05/30 11:04:15;;;;;;;5.95;0.70;;;;;;;;;;4958879;28;20046;-82
2022/05/30 11:06:43;;;;;;;1.50;0.47;;;;;;;;;;4948748;28;20069;-82
2022/05/30 11:09:17;;;;;;;1.38;0.40;;;;;;;;;;4958294;28;20130;-81
2022/05/30 11:11:46;;;;;;;1.77;0.50;;;;;;;;;;4942840;28;20487;-82
2022/05/30 11:14:18;;;;;;;1.55;0.40;;;;;;;;;;4958140;28;20498;-82
2022/05/30 11:17:23;;;;;;;2.72;0.50;;;;;;;;;;4958420;28;20505;-82
2022/05/30 11:20:04;;;;;;;2.75;0.50;;;;;;;;;;4916058;29;20053;-82
2022/05/30 11:22:36;;;;;;;2.67;0.60;;;;;;;;;;4900426;29;20062;-83
2022/05/30 11:25:03;;;;;;;2.20;0.47;;;;;;;;;;4952426;28;20047;-82
2022/05/30 11:27:37;;;;;;;1.90;0.28;;;;;;;;;;4958277;28;20051;-82
2022/05/30 11:30:07;;;;;;;2.03;0.40;;;;;;;;;;4957369;28;20038;-82
2022/05/30 11:32:42;;;;;;;2.97;0.40;;;;;;;;;;4958153;28;20053;-82
2022/05/30 11:35:08;;;;;;;3.22;0.93;;;;;;;;;;4957637;28;20127;-82
2022/05/30 11:37:46;;;;;;;2.20;0.77;;;;;;;;;;4958078;28;20483;-82
2022/05/30 11:40:27;;;;;;;0.70;0.28;;;;;;;;;;4958166;28;20437;-82
2022/05/30 11:43:03;;;;;;;0.45;0.20;;;;;;;;;;4958138;28;20124;-82
2022/05/30 11:45:29;;;;;;;1.95;0.30;;;;;;;;;;4957601;28;20063;-81
2022/05/30 11:47:58;;;;;;;0.52;0.10;;;;;;;;;;4957839;28;20195;-82
2022/05/30 11:50:24;;;;;;;2.38;1.30;;;;;;;;;;4957922;28;20072;-82
2022/05/30 11:53:09;;;;;;;4.03;0.40;;;;;;;;;;4957686;28;20074;-83
2022/05/30 11:55:49;;;;;;;1.17;0.27;;;;;;;;;;4975252;28;20053;-82
2022/05/30 11:58:22;;;;;;;0.47;0.20;;;;;;;;;;4957933;28;20552;-82
2022/05/30 12:00:49;;;;;;;2.22;0.20;;;;;;;;;;4957911;28;20043;-83
2022/05/30 12:03:29;;;;;;;2.40;0.20;;;;;;;;;;4941421;28;20074;-83
2022/05/30 12:06:02;;;;;;;0.88;0.20;;;;;;;;;;4957507;28;20589;-82
2022/05/30 12:08:36;;;;;;;0.32;0.10;;;;;;;;;;4941666;28;20050;-82
2022/05/30 12:11:08;;;;;;;1.15;0.20;;;;;;;;;;4974897;28;20089;-82
2022/05/30 12:13:52;;;;;;;0.52;0.20;;;;;;;;;;4957358;28;20519;-82
2022/05/30 12:16:24;;;;;;;2.08;0.30;;;;;;;;;;4938318;29;20062;-82
2022/05/30 12:24:41;;;;;;;1.65;0.28;;;;;;;;;;4954956;28;20486;-82
2022/05/30 12:27:12;;;;;;;2.42;0.30;;;;;;;;;;4938047;29;20050;-82
2022/05/30 12:29:38;;;;;;;1.73;0.20;;;;;;;;;;4938088;29;20394;-82
2022/05/30 12:32:10;;;;;;;0.60;0.20;;;;;;;;;;4937989;29;20454;-82
2022/05/30 12:34:55;;;;;;;1.02;0.30;;;;;;;;;;4937726;28;20494;-83
2022/05/30 12:37:44;;;;;;;1.83;0.35;;;;;;;;;;4937848;29;20134;-82
2022/05/30 12:40:15;;;;;;;1.42;0.30;;;;;;;;;;4937968;29;20102;-81
2022/05/30 12:42:43;;;;;;;2.38;0.30;;;;;;;;;;4954316;29;20043;-82
2022/05/30 12:45:19;;;;;;;0.57;0.20;;;;;;;;;;4937288;29;20479;-82
2022/05/30 12:47:45;;;;;;;;;;;;;;;;;;4955191;29;20055;-83
2022/05/30 12:50:25;;;;;;;1.38;0.50;;;;;;;;;;4954792;29;19919;-84
2022/05/30 12:53:02;;;;;;;0.17;0.10;;;;;;;;;;4922101;29;20419;-83
2022/05/30 12:55:45;;;;;;;1.35;0.25;;;;;;;;;;4954636;28;20090;-83
2022/05/30 12:58:12;;;;;;;0.80;0.20;;;;;;;;;;4937845;29;20134;-83
2022/05/30 13:00:42;;;;;;;1.00;0.30;;;;;;;;;;4954714;28;20047;-83
2022/05/30 13:03:20;;;;;;;2.28;0.28;;;;;;;;;;4927747;29;20521;-83
2022/05/30 13:05:59;;;;;;;0.77;0.25;;;;;;;;;;4930400;29;20098;-84
2022/05/30 13:08:45;;;;;;;1.33;0.30;;;;;;;;;;4937574;29;20048;-83
2022/05/30 13:11:12;;;;;;;0.50;0.28;;;;;;;;;;4937517;29;20042;-83
2022/05/30 13:13:44;;;;;;;2.20;0.40;;;;;;;;;;4937612;29;20047;-83
2022/05/30 13:16:25;;;;;;;1.60;0.38;;;;;;;;;;4937351;29;20456;-85
2022/05/30 13:18:51;;;;;;;2.53;0.45;;;;;;;;;;4957313;28;20102;-84
2022/05/30 13:21:19;;;;;;;3.88;0.50;;;;;;;;;;4941425;29;20050;-82
2022/05/30 13:23:45;;;;;;;4.03;0.60;;;;;;;;;;4941274;29;20043;-85
2022/05/30 13:26:13;;;;;;;2.47;0.32;;;;;;;;;;4940819;29;20049;-85
2022/05/30 13:28:43;;;;;;;8.93;1.10;;;;;;;;;;4941250;29;20071;-85
2022/05/30 13:31:11;;;;;;;3.15;0.60;;;;;;;;;;4958224;29;20109;-84
2022/05/30 13:33:39;;;;;;;2.85;0.47;;;;;;;;;;4941305;29;20047;-84
2022/05/30 13:36:06;;;;;;;1.60;0.30;;;;;;;;;;4957101;28;20072;-84
2022/05/30 13:38:42;;;;;;;2.63;0.32;;;;;;;;;;4941006;29;20043;-83
2022/05/30 13:41:11;;;;;;;1.13;0.30;;;;;;;;;;4940765;29;20047;-85
2022/05/30 13:43:37;;;;;;;0.70;0.28;;;;;;;;;;4940890;29;20047;-85
2022/05/30 13:46:03;;;;;;;3.85;0.50;;;;;;;;;;4940529;29;20067;-84
2022/05/30 13:48:29;;;;;;;2.58;0.47;;;;;;;;;;4940867;29;20047;-84
2022/05/30 13:50:59;;;;;;;0.85;0.22;;;;;;;;;;4939176;29;20052;-84
2022/05/30 13:53:34;;;;;;;1.27;0.28;;;;;;;;;;4941138;29;20145;-84
2022/05/30 13:56:05;;;;;;;3.20;0.43;;;;;;;;;;4940484;29;20057;-84
2022/05/30 13:58:34;;;;;;;1.88;0.40;;;;;;;;;;4940757;29;20102;-84
2022/05/30 14:01:05;;;;;;;1.45;0.10;;;;;;;;;;4940590;29;20294;-84
2022/05/30 14:03:31;;;;;;;2.20;0.38;;;;;;;;;;4940652;29;20110;-84
2022/05/30 14:05:57;;;;;;;1.27;0.25;;;;;;;;;;4924297;29;20047;-84
2022/05/30 14:08:29;;;;;;;2.33;0.75;;;;;;;;;;4940437;29;20053;-83
2022/05/30 14:10:56;;;;;;;1.95;0.35;;;;;;;;;;4957772;29;20079;-84
2022/05/30 14:13:31;;;;;;;2.28;0.50;;;;;;;;;;4940621;29;20320;-83
2022/05/30 14:15:59;;;;;;;3.63;0.70;;;;;;;;;;4940112;29;20098;-83
2022/05/30 14:18:34;;;;;;;1.95;0.47;;;;;;;;;;4940531;29;20487;-84
2022/05/30 14:21:01;;;;;;;1.45;0.40;;;;;;;;;;4957460;29;20054;-84
2022/05/30 14:23:29;;;;;;;1.95;0.57;;;;;;;;;;4940152;29;20048;-83
2022/05/30 14:25:55;;;;;;;2.97;0.30;;;;;;;;;;4957190;28;20039;-84
2022/05/30 14:28:25;;;;;;;0.82;0.35;;;;;;;;;;4940097;29;20053;-83
2022/05/30 14:30:51;;;;;;;1.77;0.30;;;;;;;;;;4938890;29;20039;-83
2022/05/30 14:33:17;;;;;;;1.13;0.32;;;;;;;;;;4940101;29;20531;-84
2022/05/30 14:35:43;;;;;;;1.55;0.38;;;;;;;;;;4957090;28;20126;-85
2022/05/30 14:38:30;;;;;;;3.70;0.90;;;;;;;;;;4939904;29;20047;-84
2022/05/30 14:41:03;;;;;;;2.58;0.77;;;;;;;;;;4939572;29;20126;-84
2022/05/30 14:43:31;;;;;;;2.92;0.70;;;;;;;;;;4956183;29;20406;-84
2022/05/30 14:46:05;;;;;;;4.10;0.80;;;;;;;;;;4956552;28;20059;-83
2022/05/30 14:48:31;;;;;;;4.03;0.98;;;;;;;;;;4939677;29;20094;-84
2022/05/30 14:51:12;;;;;;;2.78;0.90;;;;;;;;;;4939488;29;20166;-84
2022/05/30 14:53:40;;;;;;;1.50;0.80;;;;;;;;;;4956978;29;20078;-84
2022/05/30 14:56:09;;;;;;;4.28;0.98;;;;;;;;;;4939371;29;20043;-84
2022/05/30 14:58:42;;;;;;;2.47;0.65;;;;;;;;;;4956928;28;20047;-83
2022/05/30 15:01:08;;;;;;;3.17;0.63;;;;;;;;;;4939241;29;20126;-84
2022/05/30 15:06:28;;;;;;;1.92;0.50;;;;;;;;;;4956526;28;20043;-85
2022/05/30 15:08:55;;;;;;;2.60;0.52;;;;;;;;;;4939435;28;20082;-83
2022/05/30 15:11:24;;;;;;;3.17;0.80;;;;;;;;;;4955536;28;20395;-84
2022/05/30 15:13:54;;;;;;;2.00;0.50;;;;;;;;;;4939478;29;20043;-84
2022/05/30 15:16:21;;;;;;;3.45;0.60;;;;;;;;;;4922299;29;20188;-84
2022/05/30 15:18:47;;;;;;;3.00;0.73;;;;;;;;;;4939206;29;20126;-84
2022/05/30 15:21:22;;;;;;;2.25;0.80;;;;;;;;;;4955368;29;20047;-84